createdAt,value
2018-05-14T00:02:42.854Z,86.80
2018-05-14T00:07:46.216Z,86.60
2018-05-14T00:12:48.773Z,87.00
2018-05-14T00:17:51.573Z,85.30
2018-05-14T00:22:54.392Z,83.70
2018-05-14T00:27:58.949Z,84.40
2018-05-14T00:33:01.852Z,84.20
2018-05-14T00:38:05.739Z,85.20
2018-05-14T00:43:08.314Z,85.10
2018-05-14T00:48:10.872Z,86.10
2018-05-14T00:53:14.785Z,85.20
2018-05-14T00:58:18.466Z,85.20
2018-05-14T01:03:21.278Z,85.20
2018-05-14T01:08:24.102Z,84.90
2018-05-14T01:13:27.233Z,85.40
2018-05-14T01:18:33.426Z,84.40
2018-05-14T01:23:37.235Z,85.40
2018-05-14T01:28:40.384Z,85.20
2018-05-14T01:33:43.423Z,84.40
2018-05-14T01:38:48.592Z,84.80
2018-05-14T01:43:51.729Z,85.10
2018-05-14T01:48:55.785Z,84.30
2018-05-14T01:53:58.701Z,84.30
2018-05-14T01:59:03.990Z,86.50
2018-05-14T02:04:08.189Z,85.80
2018-05-14T02:09:11.699Z,87.90
2018-05-14T02:14:15.500Z,86.60
2018-05-14T02:19:18.085Z,86.60
2018-05-14T02:24:23.243Z,86.20
2018-05-14T02:29:25.834Z,86.20
2018-05-14T02:34:28.972Z,87.00
2018-05-14T02:39:32.401Z,86.00
2018-05-14T02:44:35.733Z,85.60
2018-05-14T02:49:38.294Z,85.60
2018-05-14T02:54:40.861Z,85.80
2018-05-14T02:59:43.891Z,85.70
2018-05-14T03:04:47.113Z,84.90
2018-05-14T03:09:50.728Z,84.80
2018-05-14T03:14:53.725Z,84.80
2018-05-14T03:19:56.327Z,84.00
2018-05-14T03:24:58.929Z,82.10
2018-05-14T03:30:01.508Z,81.40
2018-05-14T03:35:04.569Z,81.00
2018-05-14T03:40:08.497Z,83.20
2018-05-14T03:45:11.843Z,84.70
2018-05-14T03:50:14.726Z,84.70
2018-05-14T03:55:18.491Z,85.00
2018-05-14T04:00:33.219Z,84.80
2018-05-14T04:05:49.041Z,85.90
2018-05-14T04:10:52.364Z,85.20
2018-05-14T04:15:56.088Z,85.10
2018-05-14T04:20:58.652Z,84.10
2018-05-14T04:26:02.157Z,84.10
2018-05-14T04:31:04.728Z,81.80
2018-05-14T04:36:07.300Z,82.30
2018-05-14T04:41:10.832Z,85.20
2018-05-14T04:46:13.404Z,85.20
2018-05-14T04:51:16.732Z,82.90
2018-05-14T04:56:20.248Z,82.00
2018-05-14T05:01:23.569Z,83.70
2018-05-14T05:06:26.950Z,85.00
2018-05-14T05:11:30.337Z,84.90
2018-05-14T05:16:32.920Z,83.90
2018-05-14T05:21:35.486Z,84.30
2018-05-14T05:26:38.802Z,81.50
2018-05-14T05:31:43.677Z,81.40
2018-05-14T05:36:46.239Z,81.40
2018-05-14T05:41:49.459Z,82.50
2018-05-14T05:46:53.097Z,82.90
2018-05-14T05:51:56.427Z,84.10
2018-05-14T05:56:59.456Z,84.00
2018-05-14T06:02:02.701Z,82.30
2018-05-14T06:07:05.344Z,80.40
2018-05-14T06:12:08.317Z,79.20
2018-05-14T06:17:11.027Z,79.40
2018-05-14T06:22:14.508Z,78.30
2018-05-14T06:27:17.064Z,78.20
2018-05-14T06:32:19.645Z,78.30
2018-05-14T06:37:22.748Z,79.80
2018-05-14T06:42:25.296Z,80.70
2018-05-14T06:47:27.909Z,83.10
2018-05-14T06:52:31.115Z,83.70
2018-05-14T06:57:36.297Z,82.60
2018-05-14T07:02:40.263Z,82.80
2018-05-14T07:07:44.773Z,80.40
2018-05-14T07:12:48.028Z,81.10
2018-05-14T07:17:51.154Z,82.20
2018-05-14T07:22:54.421Z,82.20
2018-05-14T07:27:56.992Z,83.30
2018-05-14T07:33:00.353Z,82.60
2018-05-14T07:38:03.672Z,83.30
2018-05-14T07:43:21.729Z,80.80
2018-05-14T07:48:25.079Z,80.10
2018-05-14T07:53:27.956Z,80.00
2018-05-14T07:58:32.581Z,82.10
2018-05-14T08:03:35.144Z,82.00
2018-05-14T08:08:37.724Z,79.60
2018-05-14T08:13:41.936Z,80.20
2018-05-14T08:18:45.248Z,82.40
2018-05-14T08:23:50.447Z,81.00
2018-05-14T08:28:53.004Z,81.00
2018-05-14T08:33:56.377Z,79.10
2018-05-14T08:38:59.692Z,79.00
2018-05-14T08:44:03.076Z,80.10
2018-05-14T08:49:06.335Z,80.10
2018-05-14T08:54:08.935Z,80.50
2018-05-14T08:59:14.165Z,79.50
2018-05-14T09:04:19.426Z,79.50
2018-05-14T09:09:21.993Z,81.60
2018-05-14T09:14:24.552Z,81.20
2018-05-14T09:19:27.248Z,81.10
2018-05-14T09:24:29.874Z,81.00
2018-05-14T09:29:32.483Z,79.90
2018-05-14T09:34:37.431Z,81.70
2018-05-14T09:39:40.762Z,80.30
2018-05-14T09:44:43.923Z,80.30
2018-05-14T09:49:46.506Z,80.00
2018-05-14T09:54:49.533Z,77.20
2018-05-14T09:59:52.079Z,78.60
2018-05-14T10:04:56.663Z,79.60
2018-05-14T10:09:59.722Z,78.80
2018-05-14T10:15:02.303Z,79.90
2018-05-14T10:20:05.284Z,79.30
2018-05-14T10:25:08.555Z,79.60
2018-05-14T10:30:11.130Z,81.10
2018-05-14T10:35:13.693Z,80.10
2018-05-14T10:40:16.272Z,80.80
2018-05-14T10:45:18.833Z,81.10
2018-05-14T10:50:23.885Z,79.20
2018-05-14T10:55:27.660Z,77.20
2018-05-14T11:00:30.299Z,77.10
2018-05-14T11:05:33.108Z,76.90
2018-05-14T11:10:36.638Z,77.20
2018-05-14T11:15:39.970Z,77.50
2018-05-14T11:20:45.161Z,77.50
2018-05-14T11:25:47.763Z,76.40
2018-05-14T11:30:50.601Z,76.30
2018-05-14T11:35:53.963Z,72.60
2018-05-14T11:40:56.867Z,72.50
2018-05-14T11:45:59.428Z,72.90
2018-05-14T11:51:03.355Z,68.90
2018-05-14T11:56:07.080Z,69.30
2018-05-14T12:01:09.726Z,69.30
2018-05-14T12:06:12.287Z,71.20
2018-05-14T12:11:15.626Z,71.60
2018-05-14T12:16:18.273Z,71.60
2018-05-14T12:21:20.774Z,73.00
2018-05-14T12:26:23.350Z,73.00
2018-05-14T12:31:27.018Z,74.60
2018-05-14T12:36:30.346Z,72.70
2018-05-14T12:41:33.743Z,72.60
2018-05-14T12:46:36.334Z,70.80
2018-05-14T12:51:40.316Z,73.60
2018-05-14T12:56:43.479Z,72.80
2018-05-14T13:01:47.754Z,74.30
2018-05-14T13:06:50.346Z,74.30
2018-05-14T13:11:52.919Z,73.70
2018-05-14T13:16:56.973Z,73.80
2018-05-14T13:22:00.044Z,73.10
2018-05-14T13:27:04.124Z,72.10
2018-05-14T13:32:06.721Z,71.90
2018-05-14T13:37:09.665Z,72.60
2018-05-14T13:42:12.235Z,73.70
2018-05-14T13:47:14.790Z,74.50
2018-05-14T13:52:18.752Z,74.90
2018-05-14T13:57:21.923Z,74.90
2018-05-14T14:02:24.729Z,76.10
2018-05-14T14:07:27.320Z,73.60
2018-05-14T14:12:30.454Z,72.90
2018-05-14T14:17:33.775Z,74.60
2018-05-14T14:22:36.668Z,74.40
2018-05-14T14:27:40.596Z,75.30
2018-05-14T14:32:43.951Z,76.40
2018-05-14T14:37:46.520Z,76.30
2018-05-14T14:42:49.092Z,76.00
2018-05-14T14:47:52.275Z,75.30
2018-05-14T14:52:56.289Z,74.40
2018-05-14T14:57:58.871Z,74.80
2018-05-14T15:03:02.001Z,75.10
2018-05-14T15:08:05.435Z,75.00
2018-05-14T15:13:08.032Z,75.10
2018-05-14T15:18:11.188Z,75.80
2018-05-14T15:23:14.515Z,77.00
2018-05-14T15:28:17.860Z,78.50
2018-05-14T15:33:21.168Z,78.40
2018-05-14T15:38:23.739Z,79.70
2018-05-14T15:43:28.428Z,81.30
2018-05-14T15:48:31.005Z,81.30
2018-05-14T15:53:35.328Z,80.40
2018-05-14T15:58:39.553Z,82.40
2018-05-14T16:03:42.905Z,84.10
2018-05-14T16:08:45.568Z,84.10
2018-05-14T16:13:48.905Z,83.10
2018-05-14T16:18:52.167Z,83.00
2018-05-14T16:23:55.172Z,83.70
2018-05-14T16:28:57.744Z,82.50
2018-05-14T16:34:00.332Z,82.40
2018-05-14T16:39:03.391Z,81.00
2018-05-14T16:44:05.975Z,82.80
2018-05-14T16:49:08.569Z,83.60
2018-05-14T16:54:12.489Z,84.80
2018-05-14T16:59:15.065Z,84.90
2018-05-14T17:04:18.080Z,83.90
2018-05-14T17:09:21.104Z,83.30
2018-05-14T17:14:23.709Z,84.50
2018-05-14T17:19:26.378Z,84.10
2018-05-14T17:24:29.274Z,83.40
2018-05-14T17:29:33.535Z,83.80
2018-05-14T17:34:36.108Z,83.70
2018-05-14T17:39:40.262Z,82.50
2018-05-14T17:44:43.234Z,81.60
2018-05-14T17:49:50.608Z,80.90
2018-05-14T17:54:53.224Z,80.90
2018-05-14T18:05:06.864Z,78.40
2018-05-14T18:10:10.436Z,79.20
2018-05-14T18:15:13.023Z,79.10
2018-05-14T18:20:21.305Z,79.60
2018-05-14T18:25:29.762Z,80.80
2018-05-14T18:30:38.098Z,81.70
2018-05-14T18:35:46.421Z,81.70
2018-05-14T18:40:48.994Z,82.10
2018-05-14T18:45:52.688Z,79.50
2018-05-14T18:50:55.264Z,79.40
2018-05-14T18:55:58.139Z,80.90
2018-05-14T19:01:00.744Z,80.50
2018-05-14T19:06:03.335Z,79.40
2018-05-14T19:11:16.420Z,80.50
2018-05-14T19:16:24.592Z,83.00
2018-05-14T19:21:27.941Z,84.30
2018-05-14T19:26:33.173Z,84.30
2018-05-14T19:31:37.654Z,82.40
2018-05-14T19:36:40.493Z,82.40
2018-05-14T19:41:43.860Z,82.60
2018-05-14T19:52:00.503Z,84.50
2018-05-14T19:57:03.084Z,82.30
2018-05-14T20:02:07.369Z,81.40
2018-05-14T20:07:09.918Z,81.40
2018-05-14T20:12:16.729Z,83.80
2018-05-14T20:17:20.135Z,84.80
2018-05-14T20:22:22.738Z,84.60
2018-05-14T20:27:26.103Z,86.70
2018-05-14T20:32:28.982Z,86.50
2018-05-14T20:37:32.827Z,87.30
2018-05-14T20:42:36.077Z,88.00
2018-05-14T20:47:38.629Z,86.90
2018-05-14T20:52:41.176Z,87.40
2018-05-14T20:57:44.659Z,85.40
2018-05-14T21:02:48.044Z,82.30
2018-05-14T21:07:56.566Z,82.30
2018-05-14T21:12:59.140Z,82.50
2018-05-14T21:18:01.696Z,80.40
2018-05-14T21:23:04.756Z,79.20
2018-05-14T21:28:23.388Z,82.40
2018-05-14T21:33:29.639Z,79.10
2018-05-14T21:38:34.278Z,77.80
2018-05-14T21:43:38.114Z,77.70
2018-05-14T21:48:44.604Z,79.60
2018-05-14T21:53:47.179Z,81.00
2018-05-14T21:58:49.994Z,81.00
2018-05-14T22:03:53.805Z,81.20
2018-05-14T22:08:56.368Z,81.20
2018-05-14T22:13:59.878Z,80.00
2018-05-14T22:19:02.676Z,77.90
2018-05-14T22:24:05.228Z,79.10
2018-05-14T22:29:07.792Z,80.00
2018-05-14T22:34:10.344Z,78.60
2018-05-14T22:39:13.532Z,80.40
2018-05-14T22:44:16.085Z,80.30
2018-05-14T22:49:18.647Z,81.40
2018-05-14T22:54:33.943Z,79.00
2018-05-14T22:59:37.265Z,80.10
2018-05-14T23:04:39.824Z,80.10
2018-05-14T23:09:42.565Z,79.40
2018-05-14T23:14:46.589Z,77.40
2018-05-14T23:19:50.259Z,78.10
2018-05-14T23:24:53.828Z,78.10
2018-05-14T23:29:57.757Z,77.80
2018-05-14T23:35:01.099Z,76.30
2018-05-14T23:40:03.658Z,76.40
2018-05-14T23:45:06.220Z,76.30
2018-05-14T23:50:08.790Z,75.40
2018-05-14T23:55:12.065Z,75.10
